Meteo Giornale » Osservazioni meteo Italia » Firenze-Peretola

ore: 03:20 - Osservazioni Meteo Firenze-Peretola
Lat. 43° 48' N Lon. 11° 12' E Alt. 40 metri s.l.m.

sereno Europe/Rome

5 °C

Sereno

Temp. 24 Ore

5 °C

16 °C

Nord

7.4 Km/h

Dew point -2 °C

Umidità 60 %

Visibilità  10 Km

Il sole sorge alle ore 06:49

Il sole tramonta alle ore 18:05

Data e Ora Cielo e Fenomeni T °C DP °C Um. % Pres. hPa Vis. km Vento km/h
Oggi h: 03:20 sereno Sereno 5 -2 60 1028 10 N 7.4
Oggi h: 02:50 sereno Sereno 6 -2 56 1029 10 N 3.7
Oggi h: 02:20 sereno Sereno 5 -1 65 1029 10 S 7.4
Oggi h: 01:50 sereno Sereno 6 -1 60 1029 10 SO 11.1
Oggi h: 01:20 sereno Sereno 7 -2 52 1029 10 SO 9.3
Oggi h: 00:50 sereno Sereno 7 -1 56 1029 10 SO 9.3
Oggi h: 00:20 sereno Sereno 7 -1 56 1029 10 N 5.5
Ieri h: 23:50 sereno Sereno 9 -2 45 1029 10 O/SO 7.4
Ieri h: 23:20 sereno Sereno 9 -2 45 1029 10 N 5.5
Ieri h: 22:50 sereno Sereno 8 -1 52 1029 10 SO 11.1
Ieri h: 22:20 sereno Sereno 10 -1 46 1029 10 N 3.7
Ieri h: 21:50 sereno Sereno 10 -1 46 1029 10 S 9.3
Ieri h: 19:50 sereno Sereno 11 -1 43 1028 10 N 3.7
Ieri h: 19:20 sereno Sereno 10 0 49 1028 10 SO 9.3
Ieri h: 18:50 sereno Sereno 11 -0 46 1028 10 N 7.4
Ieri h: 18:20 sereno Sereno 12 -1 40 1028 10 N/NE 9.3
Ieri h: 17:50 sereno Sereno 13 -0 40 1028 10 N/NE 11.1
Ieri h: 17:20 sereno Sereno 13 0 40 1028 10 N/NE 14.8
Ieri h: 16:50 sereno Sereno 14 0 38 1028 10 N/NE 14.8
Ieri h: 15:50 sereno Sereno 15 -0 35 1028 10 NE 16.7
Ieri h: 15:20 sereno Sereno 15 0 35 1028 10 N/NE 18.5
Ieri h: 14:50 sereno Sereno 15 -0 35 1029 10 N/NE 22.2
Ieri h: 14:20 sereno Sereno 15 0 35 1029 10 NE 22.2
Ieri h: 13:50 sereno Sereno 16 0 33 1029 10 NE 22.2
Ieri h: 13:20 sereno Sereno 15 1 38 1029 10 N/NE 18.5
Ieri h: 12:50 sereno Sereno 15 -1 33 1030 10 E/NE 9.3
Ieri h: 12:20 sereno Sereno 15 -0 35 1030 10 E/NE 14.8
Ieri h: 11:50 sereno Sereno 14 -1 35 1030 10 E 18.5
Ieri h: 10:50 sereno Sereno 14 1 41 1030 10 E 11.1
Ieri h: 10:20 sereno Sereno 13 -2 35 1030 10 E 14.8
Ieri h: 09:50 sereno Sereno 13 -1 37 1030 10 N 7.4
Ieri h: 09:20 sereno Sereno 12 -2 37 1030 10 N 5.5
Ieri h: 08:50 sereno Sereno 11 -1 43 1030 10 O/SO 14.8
Ieri h: 08:20 sereno Sereno 10 -0 49 1030 10 O/SO 9.3
Ieri h: 07:50 sereno Sereno 10 -0 49 1029 10 N 7.4
Ieri h: 07:20 sereno Sereno 9 -1 49 1029 10 S/SO 9.3
Ieri h: 06:50 sereno Sereno 9 -1 49 1028 10 N 5.5
Ieri h: 06:20 sereno Sereno 9 -0 53 1028 10 N 5.5
Ieri h: 05:50 sereno Sereno 8 1 61 1028 10 N 5.5
Ieri h: 05:20 sereno Sereno 9 1 57 1028 10 E 7.4
Ieri h: 04:50 sereno Sereno 10 1 53 1028 10 N 7.4